createdAt,value
2018-07-05T00:01:55.124Z,64.00
2018-07-05T00:04:34.227Z,63.50
2018-07-05T00:07:13.617Z,62.30
2018-07-05T00:09:52.901Z,62.30
2018-07-05T00:12:32.237Z,60.50
2018-07-05T00:15:11.431Z,60.40
2018-07-05T00:17:50.535Z,60.00
2018-07-05T00:20:29.689Z,59.50
2018-07-05T00:23:08.890Z,59.50
2018-07-05T00:25:47.934Z,59.60
2018-07-05T00:28:27.089Z,59.80
2018-07-05T00:31:06.115Z,59.90
2018-07-05T00:33:45.957Z,60.10
2018-07-05T00:36:25.132Z,60.50
2018-07-05T00:39:04.714Z,60.90
2018-07-05T00:41:43.937Z,60.90
2018-07-05T00:44:23.136Z,61.30
2018-07-05T00:47:02.115Z,61.30
2018-07-05T00:49:41.228Z,61.50
2018-07-05T00:52:20.309Z,62.20
2018-07-05T00:54:59.421Z,62.60
2018-07-05T00:57:38.584Z,64.10
2018-07-05T01:00:17.763Z,64.80
2018-07-05T01:02:56.925Z,65.40
2018-07-05T01:05:36.162Z,66.00
2018-07-05T01:08:15.650Z,66.40
2018-07-05T01:10:54.902Z,66.80
2018-07-05T01:13:34.241Z,67.50
2018-07-05T01:16:13.458Z,67.70
2018-07-05T01:21:25.945Z,68.60
2018-07-05T01:24:04.896Z,68.80
2018-07-05T01:26:44.054Z,69.10
2018-07-05T01:29:23.133Z,69.10
2018-07-05T01:32:02.087Z,69.40
2018-07-05T01:34:40.952Z,69.60
2018-07-05T01:37:20.271Z,69.70
2018-07-05T01:39:59.543Z,69.70
2018-07-05T01:42:38.787Z,69.80
2018-07-05T01:45:18.106Z,69.90
2018-07-05T01:50:30.455Z,70.00
2018-07-05T01:53:09.543Z,70.10
2018-07-05T01:55:48.571Z,70.20
2018-07-05T01:58:27.611Z,69.90
2018-07-05T02:01:06.887Z,70.00
2018-07-05T02:03:46.228Z,70.00
2018-07-05T02:06:25.351Z,70.20
2018-07-05T02:09:04.955Z,70.30
2018-07-05T02:11:44.172Z,70.50
2018-07-05T02:14:23.311Z,70.90
2018-07-05T02:17:02.433Z,71.30
2018-07-05T02:19:41.517Z,70.50
2018-07-05T02:22:20.664Z,70.30
2018-07-05T02:24:59.675Z,69.60
2018-07-05T02:27:38.928Z,69.80
2018-07-05T02:30:18.157Z,69.90
2018-07-05T02:32:57.162Z,70.20
2018-07-05T02:35:36.240Z,70.20
2018-07-05T02:38:21.023Z,70.40
2018-07-05T02:41:00.144Z,70.40
2018-07-05T02:43:39.296Z,70.30
2018-07-05T02:46:18.516Z,70.40
2018-07-05T02:48:57.756Z,70.70
2018-07-05T02:51:36.905Z,71.00
2018-07-05T02:54:16.591Z,71.10
2018-07-05T02:56:55.912Z,71.20
2018-07-05T02:59:35.280Z,71.10
2018-07-05T03:02:14.449Z,71.10
2018-07-05T03:04:53.600Z,71.00
2018-07-05T03:07:32.689Z,71.20
2018-07-05T03:10:12.078Z,71.30
2018-07-05T03:12:51.192Z,71.40
2018-07-05T03:15:30.326Z,71.50
2018-07-05T03:18:09.496Z,70.60
2018-07-05T03:20:48.530Z,70.70
2018-07-05T03:23:27.816Z,70.90
2018-07-05T03:26:06.948Z,69.00
2018-07-05T03:28:45.962Z,67.80
2018-07-05T03:31:25.067Z,67.50
2018-07-05T03:34:04.188Z,67.40
2018-07-05T03:36:43.442Z,66.90
2018-07-05T03:39:22.654Z,67.90
2018-07-05T03:42:01.894Z,67.80
2018-07-05T03:44:40.857Z,67.50
2018-07-05T03:47:19.827Z,67.20
2018-07-05T03:49:59.124Z,67.20
2018-07-05T03:52:38.282Z,67.70
2018-07-05T03:55:17.350Z,66.80
2018-07-05T03:57:56.423Z,66.70
2018-07-05T04:00:35.591Z,66.80
2018-07-05T04:03:14.707Z,67.60
2018-07-05T04:05:53.873Z,67.40
2018-07-05T04:08:33.073Z,67.00
2018-07-05T04:11:12.362Z,66.90
2018-07-05T04:13:51.612Z,67.00
2018-07-05T04:16:30.719Z,66.90
2018-07-05T04:19:09.898Z,67.30
2018-07-05T04:21:49.115Z,67.10
2018-07-05T04:24:29.249Z,67.20
2018-07-05T04:27:08.275Z,67.00
2018-07-05T04:29:47.604Z,66.90
2018-07-05T04:32:26.886Z,66.60
2018-07-05T04:35:06.107Z,66.60
2018-07-05T04:37:45.532Z,66.30
2018-07-05T04:40:24.807Z,65.60
2018-07-05T04:43:04.211Z,65.30
2018-07-05T04:45:43.781Z,64.90
2018-07-05T04:48:23.026Z,64.50
2018-07-05T04:51:02.179Z,64.60
2018-07-05T04:53:41.524Z,64.60
2018-07-05T04:56:20.931Z,64.70
2018-07-05T04:59:00.108Z,64.40
2018-07-05T05:01:39.052Z,64.30
2018-07-05T05:04:18.277Z,64.10
2018-07-05T05:06:57.469Z,64.10
2018-07-05T05:09:36.601Z,64.10
2018-07-05T05:12:15.752Z,64.10
2018-07-05T05:14:54.999Z,63.90
2018-07-05T05:17:34.111Z,64.10
2018-07-05T05:22:46.443Z,63.80
2018-07-05T05:25:25.691Z,63.80
2018-07-05T05:28:04.876Z,63.20
2018-07-05T05:30:43.980Z,63.20
2018-07-05T05:33:23.121Z,63.20
2018-07-05T05:36:02.324Z,62.40
2018-07-05T05:38:41.431Z,62.10
2018-07-05T05:41:20.556Z,62.50
2018-07-05T05:43:59.766Z,62.20
2018-07-05T05:46:38.939Z,61.60
2018-07-05T05:49:18.121Z,61.70
2018-07-05T05:51:57.543Z,61.50
2018-07-05T05:54:36.752Z,61.20
2018-07-05T05:57:16.214Z,61.20
2018-07-05T05:59:55.362Z,61.20
2018-07-05T06:02:35.558Z,61.10
2018-07-05T06:05:14.575Z,60.60
2018-07-05T06:07:53.823Z,60.20
2018-07-05T06:10:32.992Z,60.10
2018-07-05T06:13:12.250Z,60.10
2018-07-05T06:18:24.707Z,59.90
2018-07-05T06:21:07.659Z,59.40
2018-07-05T06:23:46.918Z,59.10
2018-07-05T06:26:28.307Z,57.80
2018-07-05T06:29:07.393Z,53.90
2018-07-05T06:31:46.520Z,49.80
2018-07-05T06:34:25.628Z,46.10
2018-07-05T06:37:04.932Z,42.80
2018-07-05T06:39:44.046Z,40.60
2018-07-05T06:42:23.111Z,39.00
2018-07-05T06:45:02.194Z,37.30
2018-07-05T06:47:41.195Z,37.60
2018-07-05T06:50:20.291Z,36.50
2018-07-05T06:52:59.455Z,35.30
2018-07-05T06:55:38.462Z,34.80
2018-07-05T07:00:51.068Z,34.10
2018-07-05T07:03:30.353Z,33.40
2018-07-05T07:06:09.287Z,32.70
2018-07-05T07:08:48.317Z,32.80
2018-07-05T07:11:27.431Z,32.80
2018-07-05T07:14:06.623Z,32.70
2018-07-05T07:16:57.015Z,33.00
2018-07-05T07:19:36.186Z,32.50
2018-07-05T07:22:15.213Z,32.40
2018-07-05T07:24:54.274Z,32.00
2018-07-05T07:27:33.310Z,31.80
2018-07-05T07:30:12.490Z,31.30
2018-07-05T07:32:51.864Z,30.60
2018-07-05T07:35:32.244Z,30.00
2018-07-05T07:38:11.294Z,29.60
2018-07-05T07:40:50.726Z,29.90
2018-07-05T07:43:17.389Z,28.80
2018-07-05T07:45:44.189Z,29.70
2018-07-05T07:48:10.792Z,29.40
2018-07-05T07:50:37.474Z,28.80
2018-07-05T07:53:04.168Z,29.30
2018-07-05T07:55:30.826Z,29.40
2018-07-05T07:57:57.540Z,28.50
2018-07-05T08:00:24.155Z,29.00
2018-07-05T08:02:50.800Z,28.80
2018-07-05T08:05:17.490Z,28.30
2018-07-05T08:07:44.130Z,28.70
2018-07-05T08:10:10.822Z,29.10
2018-07-05T08:12:37.433Z,28.70
2018-07-05T08:15:04.029Z,29.30
2018-07-05T08:19:57.884Z,29.90
2018-07-05T08:22:24.480Z,30.00
2018-07-05T08:24:51.121Z,31.50
2018-07-05T08:27:17.754Z,31.60
2018-07-05T08:29:44.372Z,31.10
2018-07-05T08:32:11.268Z,30.80
2018-07-05T08:34:37.805Z,31.10
2018-07-05T08:37:04.506Z,31.10
2018-07-05T08:39:31.313Z,31.30
2018-07-05T08:44:25.147Z,32.30
2018-07-05T08:46:51.755Z,32.20
2018-07-05T08:49:18.460Z,32.50
2018-07-05T08:51:45.076Z,32.10
2018-07-05T08:54:11.698Z,31.60
2018-07-05T08:56:38.385Z,32.00
2018-07-05T08:59:04.966Z,32.10
2018-07-05T09:01:31.699Z,32.70
2018-07-05T09:03:58.309Z,33.90
2018-07-05T09:06:24.995Z,32.80
2018-07-05T09:08:51.642Z,32.90
2018-07-05T09:11:18.213Z,33.30
2018-07-05T09:13:45.053Z,32.50
2018-07-05T09:16:11.682Z,33.10
2018-07-05T09:18:38.359Z,32.60
2018-07-05T09:21:05.190Z,32.60
2018-07-05T09:23:31.825Z,32.60
2018-07-05T09:25:58.396Z,32.60
2018-07-05T09:30:52.478Z,32.70
2018-07-05T09:33:19.513Z,32.50
2018-07-05T09:35:46.212Z,32.00
2018-07-05T09:38:12.918Z,31.90
2018-07-05T09:40:39.508Z,32.40
2018-07-05T09:43:06.265Z,32.40
2018-07-05T09:45:32.980Z,32.80
2018-07-05T09:47:59.590Z,32.00
2018-07-05T09:50:26.484Z,32.30
2018-07-05T09:52:54.235Z,32.00
2018-07-05T09:55:20.920Z,32.00
2018-07-05T09:57:47.637Z,32.30
2018-07-05T10:00:14.399Z,31.60
2018-07-05T10:02:41.230Z,32.60
2018-07-05T10:05:07.862Z,31.60
2018-07-05T10:07:34.625Z,31.80
2018-07-05T10:10:01.632Z,32.50
2018-07-05T10:12:28.321Z,32.00
2018-07-05T10:14:55.114Z,31.50
2018-07-05T10:17:21.725Z,31.10
2018-07-05T10:19:49.021Z,31.30
2018-07-05T10:22:15.758Z,30.00
2018-07-05T10:24:45.137Z,29.70
2018-07-05T10:27:11.886Z,30.30
2018-07-05T10:29:50.946Z,31.00
2018-07-05T10:32:30.106Z,30.90
2018-07-05T10:34:56.995Z,31.60
2018-07-05T10:37:24.871Z,31.60
2018-07-05T10:40:04.810Z,31.70
2018-07-05T10:42:44.964Z,31.60
2018-07-05T10:45:27.714Z,31.40
2018-07-05T10:48:07.128Z,32.60
2018-07-05T10:50:47.238Z,32.50
2018-07-05T10:53:27.316Z,33.30
2018-07-05T10:56:06.548Z,31.60
2018-07-05T10:58:45.712Z,32.10
2018-07-05T11:03:58.822Z,32.00
2018-07-05T11:06:37.997Z,32.70
2018-07-05T11:09:17.639Z,32.40
2018-07-05T11:11:57.450Z,32.70
2018-07-05T11:14:37.289Z,32.70
2018-07-05T11:17:17.760Z,32.60
2018-07-05T11:19:57.170Z,32.60
2018-07-05T11:22:36.438Z,32.60
2018-07-05T11:25:16.625Z,33.00
2018-07-05T11:27:56.756Z,33.50
2018-07-05T11:30:36.807Z,34.90
2018-07-05T11:33:16.850Z,38.90
2018-07-05T11:36:00.587Z,41.60
2018-07-05T11:38:40.011Z,42.80
2018-07-05T11:41:20.210Z,43.00
2018-07-05T11:43:59.431Z,41.00
2018-07-05T11:46:38.765Z,40.70
2018-07-05T11:49:18.830Z,40.40
2018-07-05T11:51:58.238Z,40.50
2018-07-05T11:54:38.840Z,41.10
2018-07-05T11:57:19.450Z,42.00
2018-07-05T11:59:58.862Z,42.80
2018-07-05T12:02:37.882Z,43.20
2018-07-05T12:07:53.917Z,43.10
2018-07-05T12:10:33.530Z,43.40
2018-07-05T12:13:12.760Z,47.60
2018-07-05T12:15:53.143Z,50.00
2018-07-05T12:18:32.433Z,47.80
2018-07-05T12:21:11.579Z,44.60
2018-07-05T12:23:51.013Z,44.40
2018-07-05T12:26:30.410Z,43.60
2018-07-05T12:29:09.775Z,42.80
2018-07-05T12:31:49.791Z,41.50
2018-07-05T12:34:29.073Z,43.20
2018-07-05T12:37:08.230Z,42.40
2018-07-05T12:39:48.088Z,42.50
2018-07-05T12:42:27.746Z,43.20
2018-07-05T12:45:07.044Z,42.70
2018-07-05T12:47:46.285Z,43.00
2018-07-05T12:50:25.669Z,42.30
2018-07-05T12:53:05.588Z,41.60
2018-07-05T12:55:46.800Z,40.50
2018-07-05T12:58:26.231Z,39.80
2018-07-05T13:06:33.514Z,40.60
2018-07-05T13:09:12.891Z,40.90
2018-07-05T13:11:53.659Z,41.20
2018-07-05T13:14:34.862Z,41.10
2018-07-05T13:17:14.113Z,41.70
2018-07-05T13:19:53.898Z,41.70
2018-07-05T13:22:33.508Z,42.20
2018-07-05T13:25:13.682Z,42.60
2018-07-05T13:27:54.525Z,42.20
2018-07-05T13:30:33.702Z,42.60
2018-07-05T13:33:13.044Z,42.80
2018-07-05T13:35:52.334Z,42.80
2018-07-05T13:38:31.500Z,44.30
2018-07-05T13:41:10.629Z,47.00
2018-07-05T13:43:49.958Z,50.10
2018-07-05T13:46:29.030Z,51.40
2018-07-05T13:49:08.322Z,52.70
2018-07-05T13:51:47.707Z,52.80
2018-07-05T13:54:26.988Z,53.40
2018-07-05T13:57:06.253Z,54.80
2018-07-05T13:59:45.371Z,56.00
2018-07-05T14:02:24.787Z,57.80
2018-07-05T14:05:03.953Z,58.40
2018-07-05T14:07:43.354Z,60.10
2018-07-05T14:10:22.548Z,60.90
2018-07-05T14:13:01.977Z,60.10
2018-07-05T14:15:41.095Z,60.10
2018-07-05T14:18:20.566Z,64.40
2018-07-05T14:20:59.863Z,65.40
2018-07-05T14:23:39.268Z,66.90
2018-07-05T14:26:19.058Z,68.50
2018-07-05T14:28:58.153Z,67.70
2018-07-05T14:31:37.302Z,69.90
2018-07-05T14:34:16.182Z,69.40
2018-07-05T14:36:55.584Z,72.90
2018-07-05T14:39:34.960Z,71.20
2018-07-05T14:42:14.135Z,74.10
2018-07-05T14:44:53.336Z,74.50
2018-07-05T14:47:32.597Z,71.60
2018-07-05T14:52:44.988Z,77.60
2018-07-05T14:55:24.534Z,77.70
2018-07-05T14:58:03.720Z,76.50
2018-07-05T15:00:43.030Z,77.70
2018-07-05T15:03:22.328Z,75.30
2018-07-05T15:06:01.588Z,76.40
2018-07-05T15:08:41.884Z,73.40
2018-07-05T15:11:22.814Z,75.40
2018-07-05T15:14:02.618Z,76.20
2018-07-05T15:16:43.554Z,76.70
2018-07-05T15:19:23.116Z,76.00
2018-07-05T15:22:02.982Z,72.00
2018-07-05T15:24:42.571Z,73.00
2018-07-05T15:27:22.285Z,71.60
2018-07-05T15:30:01.809Z,71.90
2018-07-05T15:32:40.989Z,75.00
2018-07-05T15:35:20.449Z,72.20
2018-07-05T15:37:59.683Z,71.40
2018-07-05T15:40:38.982Z,72.50
2018-07-05T15:43:19.174Z,73.70
2018-07-05T15:45:58.372Z,73.70
2018-07-05T15:48:37.783Z,74.60
2018-07-05T15:51:17.121Z,75.60
2018-07-05T15:54:04.997Z,72.40
2018-07-05T15:56:44.314Z,72.30
2018-07-05T15:59:23.641Z,71.60
2018-07-05T16:02:03.268Z,72.60
2018-07-05T16:04:42.864Z,74.30
2018-07-05T16:07:22.462Z,75.40
2018-07-05T16:10:02.013Z,73.90
2018-07-05T16:12:41.694Z,73.20
2018-07-05T16:15:21.018Z,75.50
2018-07-05T16:18:00.251Z,74.70
2018-07-05T16:20:39.943Z,72.50
2018-07-05T16:23:19.693Z,75.30
2018-07-05T16:26:00.455Z,76.70
2018-07-05T16:28:41.138Z,76.90
2018-07-05T16:31:20.982Z,76.40
2018-07-05T16:34:01.797Z,76.90
2018-07-05T16:36:40.954Z,76.10
2018-07-05T16:39:20.298Z,76.60
2018-07-05T16:41:59.630Z,77.10
2018-07-05T16:44:38.845Z,76.10
2018-07-05T16:47:18.272Z,77.10
2018-07-05T16:49:57.684Z,77.10
2018-07-05T16:52:36.673Z,76.90
2018-07-05T16:55:15.656Z,76.30
2018-07-05T16:57:57.590Z,77.60
2018-07-05T17:00:38.237Z,76.70
2018-07-05T17:03:17.973Z,75.10
2018-07-05T17:05:58.231Z,76.90
2018-07-05T17:08:37.295Z,76.20
2018-07-05T17:11:16.779Z,77.10
2018-07-05T17:13:56.544Z,77.60
2018-07-05T17:16:36.176Z,77.30
2018-07-05T17:19:15.378Z,76.50
2018-07-05T17:21:55.809Z,74.50
2018-07-05T17:24:35.488Z,74.50
2018-07-05T17:27:15.326Z,73.30
2018-07-05T17:29:54.932Z,72.80
2018-07-05T17:32:34.230Z,73.00
2018-07-05T17:35:13.555Z,72.40
2018-07-05T17:37:53.462Z,72.60
2018-07-05T17:40:32.706Z,72.10
2018-07-05T17:43:11.637Z,72.00
2018-07-05T17:45:51.041Z,70.80
2018-07-05T17:48:30.131Z,70.90
2018-07-05T17:51:09.016Z,70.30
2018-07-05T17:53:48.218Z,71.20
2018-07-05T17:56:27.670Z,70.80
2018-07-05T17:59:06.800Z,71.00
2018-07-05T18:01:46.037Z,70.40
2018-07-05T18:04:25.397Z,69.80
2018-07-05T18:07:04.556Z,69.80
2018-07-05T18:09:43.767Z,70.10
2018-07-05T18:12:23.001Z,70.40
2018-07-05T18:15:02.357Z,69.90
2018-07-05T18:17:41.740Z,69.60
2018-07-05T18:20:20.886Z,69.50
2018-07-05T18:23:00.085Z,69.40
2018-07-05T18:25:51.231Z,69.70
2018-07-05T18:28:30.689Z,69.30
2018-07-05T18:31:09.550Z,69.80
2018-07-05T18:33:48.569Z,70.60
2018-07-05T18:36:27.647Z,71.50
2018-07-05T18:39:06.676Z,73.20
2018-07-05T18:41:45.740Z,73.20
2018-07-05T18:44:24.984Z,73.00
2018-07-05T18:47:04.771Z,73.40
2018-07-05T18:49:44.023Z,74.00
2018-07-05T18:52:23.212Z,73.80
2018-07-05T18:55:02.310Z,73.90
2018-07-05T18:57:41.566Z,73.50
2018-07-05T19:00:20.589Z,73.30
2018-07-05T19:02:59.686Z,72.90
2018-07-05T19:05:42.903Z,73.10
2018-07-05T19:08:22.127Z,72.50
2018-07-05T19:11:01.243Z,73.20
2018-07-05T19:13:40.500Z,73.50
2018-07-05T19:16:19.823Z,73.70
2018-07-05T19:18:59.155Z,73.70
2018-07-05T19:21:38.340Z,72.60
2018-07-05T19:24:17.787Z,72.10
2018-07-05T19:26:56.928Z,72.60
2018-07-05T19:32:31.710Z,73.40
2018-07-05T19:35:10.931Z,73.80
2018-07-05T19:37:50.556Z,74.00
2018-07-05T19:43:06.281Z,74.40
2018-07-05T19:45:46.541Z,74.60
2018-07-05T19:48:25.632Z,74.40
2018-07-05T19:51:04.967Z,74.40
2018-07-05T19:53:44.310Z,74.70
2018-07-05T19:56:23.458Z,73.90
2018-07-05T19:59:02.475Z,74.40
2018-07-05T20:01:41.589Z,74.70
2018-07-05T20:04:21.114Z,74.70
2018-07-05T20:07:00.503Z,75.00
2018-07-05T20:09:42.512Z,75.20
2018-07-05T20:12:22.519Z,75.30
2018-07-05T20:15:01.799Z,75.20
2018-07-05T20:17:41.224Z,75.60
2018-07-05T20:23:07.326Z,75.70
2018-07-05T20:25:49.562Z,75.70
2018-07-05T20:28:28.926Z,75.70
2018-07-05T20:55:00.334Z,75.80
2018-07-05T20:57:40.280Z,78.00
2018-07-05T21:00:19.626Z,77.60
2018-07-05T21:05:32.209Z,77.00
2018-07-05T21:08:12.067Z,76.70
2018-07-05T21:10:51.121Z,76.70
2018-07-05T21:13:30.457Z,76.50
2018-07-05T21:16:09.830Z,75.20
2018-07-05T21:18:50.295Z,76.80
2018-07-05T21:21:29.751Z,78.10
2018-07-05T21:24:09.095Z,78.80
2018-07-05T21:26:48.587Z,79.30
2018-07-05T21:29:28.033Z,79.50
2018-07-05T21:32:07.690Z,79.80
2018-07-05T21:34:47.116Z,79.80
2018-07-05T21:37:26.549Z,79.50
2018-07-05T21:40:06.132Z,79.90
2018-07-05T21:42:45.863Z,79.00
2018-07-05T21:45:25.113Z,79.60
2018-07-05T21:48:04.403Z,79.20
2018-07-05T21:50:43.657Z,79.50
2018-07-05T21:53:23.120Z,80.10
2018-07-05T21:56:02.203Z,79.80
2018-07-05T21:58:41.355Z,79.20
2018-07-05T22:01:20.588Z,79.60
2018-07-05T22:04:00.060Z,79.70
2018-07-05T22:06:39.252Z,79.40
2018-07-05T22:09:18.575Z,79.60
2018-07-05T22:11:58.158Z,80.80
2018-07-05T22:14:37.304Z,80.70
2018-07-05T22:17:22.053Z,81.20
2018-07-05T22:20:06.791Z,81.20
2018-07-05T22:22:51.611Z,81.20
2018-07-05T22:25:36.453Z,81.60
2018-07-05T22:29:19.139Z,81.20
2018-07-05T22:31:59.353Z,81.60
2018-07-05T22:34:38.962Z,81.20
2018-07-05T22:37:18.340Z,81.70
2018-07-05T22:39:57.596Z,81.60
2018-07-05T22:42:37.559Z,80.80
2018-07-05T22:45:16.895Z,81.60
2018-07-05T22:47:56.259Z,82.40
2018-07-05T22:50:35.426Z,82.10
2018-07-05T22:53:14.861Z,81.70
2018-07-05T22:55:54.322Z,81.70
2018-07-05T22:58:33.952Z,82.30
2018-07-05T23:01:13.466Z,83.00
2018-07-05T23:03:52.791Z,83.50
2018-07-05T23:06:33.013Z,83.30
2018-07-05T23:09:11.983Z,83.00
2018-07-05T23:11:51.109Z,82.60
2018-07-05T23:14:30.037Z,83.10
2018-07-05T23:17:08.948Z,83.60
2018-07-05T23:19:47.975Z,83.90
2018-07-05T23:22:26.854Z,84.10
2018-07-05T23:25:06.124Z,84.40
2018-07-05T23:27:45.574Z,84.40
2018-07-05T23:30:24.961Z,84.60
2018-07-05T23:33:04.071Z,84.40
2018-07-05T23:35:43.331Z,84.20
2018-07-05T23:38:22.457Z,84.20
2018-07-05T23:41:01.391Z,84.10
2018-07-05T23:43:40.518Z,84.30
2018-07-05T23:48:53.100Z,84.60
2018-07-05T23:51:32.586Z,84.90
2018-07-05T23:54:11.943Z,84.90
2018-07-05T23:56:51.075Z,85.10
2018-07-05T23:59:30.321Z,84.10
